createdAt,value
2018-09-22T00:02:03.254Z,96.40
2018-09-22T00:04:32.888Z,96.50
2018-09-22T00:07:03.197Z,96.80
2018-09-22T00:09:32.789Z,97.00
2018-09-22T00:12:03.140Z,96.80
2018-09-22T00:14:33.270Z,96.70
2018-09-22T00:17:02.944Z,96.50
2018-09-22T00:19:33.618Z,96.80
2018-09-22T00:22:03.518Z,96.70
2018-09-22T00:24:33.907Z,96.70
2018-09-22T00:27:04.094Z,96.70
2018-09-22T00:29:33.604Z,96.70
2018-09-22T00:32:03.275Z,96.80
2018-09-22T00:34:32.978Z,96.80
2018-09-22T00:37:03.508Z,97.20
2018-09-22T00:39:33.184Z,97.00
2018-09-22T00:42:03.798Z,97.00
2018-09-22T00:44:33.556Z,97.00
2018-09-22T00:47:04.361Z,96.90
2018-09-22T00:49:34.590Z,96.90
2018-09-22T00:52:04.402Z,96.90
2018-09-22T00:54:33.886Z,96.70
2018-09-22T00:57:04.477Z,97.10
2018-09-22T00:59:35.093Z,97.00
2018-09-22T01:02:06.286Z,97.10
2018-09-22T01:04:35.856Z,97.30
2018-09-22T01:07:05.286Z,97.20
2018-09-22T01:09:34.750Z,97.30
2018-09-22T01:12:04.131Z,97.50
2018-09-22T01:14:33.804Z,97.40
2018-09-22T01:17:03.609Z,97.70
2018-09-22T01:19:33.239Z,97.70
2018-09-22T01:22:03.061Z,97.60
2018-09-22T01:24:32.726Z,97.50
2018-09-22T01:27:02.006Z,97.50
2018-09-22T01:29:31.487Z,97.30
2018-09-22T01:32:01.114Z,97.40
2018-09-22T01:34:30.403Z,97.40
2018-09-22T01:37:00.730Z,97.60
2018-09-22T01:39:30.095Z,97.50
2018-09-22T01:41:59.706Z,97.30
2018-09-22T01:44:29.142Z,97.70
2018-09-22T01:46:59.031Z,97.70
2018-09-22T01:49:29.748Z,97.60
2018-09-22T01:51:59.510Z,97.60
2018-09-22T01:54:29.239Z,97.40
2018-09-22T01:56:58.979Z,97.40
2018-09-22T01:59:28.432Z,97.50
2018-09-22T02:01:58.323Z,97.50
2018-09-22T02:04:28.448Z,97.40
2018-09-22T02:06:58.561Z,97.50
2018-09-22T02:09:27.986Z,97.10
2018-09-22T02:11:57.626Z,97.50
2018-09-22T02:14:27.044Z,97.60
2018-09-22T02:16:56.791Z,97.40
2018-09-22T02:19:26.442Z,97.30
2018-09-22T02:21:55.963Z,97.50
2018-09-22T02:24:26.626Z,97.70
2018-09-22T02:26:56.470Z,97.60
2018-09-22T02:29:25.875Z,97.60
2018-09-22T02:31:55.918Z,97.70
2018-09-22T02:34:25.495Z,97.70
2018-09-22T02:36:55.090Z,98.10
2018-09-22T02:39:27.866Z,98.00
2018-09-22T02:41:57.509Z,98.10
2018-09-22T02:44:27.054Z,98.10
2018-09-22T02:46:57.498Z,98.30
2018-09-22T02:49:27.383Z,98.30
2018-09-22T02:51:56.935Z,98.10
2018-09-22T02:54:26.652Z,97.70
2018-09-22T02:56:56.379Z,98.10
2018-09-22T02:59:25.725Z,98.10
2018-09-22T03:01:58.329Z,98.00
2018-09-22T03:04:29.152Z,97.90
2018-09-22T03:06:59.450Z,98.10
2018-09-22T03:09:29.451Z,98.10
2018-09-22T03:11:59.044Z,98.00
2018-09-22T03:14:29.542Z,98.10
2018-09-22T03:16:59.264Z,98.00
2018-09-22T03:19:29.527Z,97.90
2018-09-22T03:21:58.998Z,98.30
2018-09-22T03:24:28.491Z,98.80
2018-09-22T03:26:58.049Z,98.90
2018-09-22T03:29:27.642Z,98.90
2018-09-22T03:31:57.116Z,99.00
2018-09-22T03:34:27.309Z,99.20
2018-09-22T03:36:57.348Z,99.00
2018-09-22T03:39:26.840Z,99.00
2018-09-22T03:41:56.597Z,99.00
2018-09-22T03:44:26.640Z,98.70
2018-09-22T03:46:56.522Z,98.90
2018-09-22T03:49:26.067Z,98.80
2018-09-22T03:51:56.707Z,98.80
2018-09-22T03:54:26.434Z,98.70
2018-09-22T03:56:55.880Z,98.80
2018-09-22T03:59:25.640Z,98.60
2018-09-22T04:01:55.897Z,98.60
2018-09-22T04:04:27.432Z,98.80
2018-09-22T04:06:57.528Z,98.60
2018-09-22T04:09:27.007Z,98.70
2018-09-22T04:11:56.457Z,98.60
2018-09-22T04:14:26.484Z,98.70
2018-09-22T04:16:55.885Z,98.50
2018-09-22T04:19:25.393Z,98.40
2018-09-22T04:21:55.761Z,98.50
2018-09-22T04:24:25.552Z,98.50
2018-09-22T04:26:55.124Z,98.60
2018-09-22T04:29:25.453Z,98.50
2018-09-22T04:31:55.063Z,98.40
2018-09-22T04:34:25.050Z,98.60
2018-09-22T04:36:55.656Z,98.50
2018-09-22T04:39:25.196Z,98.50
2018-09-22T04:41:54.956Z,98.40
2018-09-22T04:44:24.367Z,98.30
2018-09-22T04:46:54.101Z,98.40
2018-09-22T04:49:23.651Z,98.40
2018-09-22T04:51:53.273Z,98.40
2018-09-22T04:54:23.188Z,98.40
2018-09-22T04:56:54.632Z,98.60
2018-09-22T04:59:24.854Z,98.30
2018-09-22T05:01:55.368Z,98.40
2018-09-22T05:04:25.089Z,98.40
2018-09-22T05:06:54.497Z,98.50
2018-09-22T05:09:26.172Z,98.40
2018-09-22T05:11:56.217Z,98.30
2018-09-22T05:14:26.345Z,98.40
2018-09-22T05:16:56.022Z,98.20
2018-09-22T05:19:25.606Z,98.10
2018-09-22T05:21:55.021Z,98.20
2018-09-22T05:24:24.722Z,98.30
2018-09-22T05:26:54.692Z,98.60
2018-09-22T05:29:24.135Z,98.40
2018-09-22T05:31:53.537Z,98.50
2018-09-22T05:34:23.338Z,98.60
2018-09-22T05:36:52.927Z,98.50
2018-09-22T05:39:22.410Z,98.90
2018-09-22T05:41:53.691Z,98.40
2018-09-22T05:44:24.224Z,98.50
2018-09-22T05:46:54.080Z,98.50
2018-09-22T05:49:24.602Z,98.50
2018-09-22T05:51:54.597Z,98.50
2018-09-22T05:54:24.175Z,98.40
2018-09-22T05:56:53.925Z,98.40
2018-09-22T05:59:23.425Z,98.50
2018-09-22T06:01:53.599Z,98.40
2018-09-22T06:04:22.970Z,98.40
2018-09-22T06:06:52.790Z,98.40
2018-09-22T06:09:22.533Z,98.60
2018-09-22T06:11:52.896Z,98.50
2018-09-22T06:14:22.450Z,98.40
2018-09-22T06:16:53.628Z,98.50
2018-09-22T06:19:23.227Z,98.40
2018-09-22T06:21:52.644Z,98.40
2018-09-22T06:24:22.312Z,98.30
2018-09-22T06:26:52.686Z,98.20
2018-09-22T06:29:22.350Z,97.60
2018-09-22T06:31:52.232Z,98.30
2018-09-22T06:34:22.063Z,98.40
2018-09-22T06:36:51.918Z,98.30
2018-09-22T06:39:21.861Z,98.50
2018-09-22T06:41:51.218Z,98.40
2018-09-22T06:44:20.582Z,98.30
2018-09-22T06:46:50.357Z,98.40
2018-09-22T06:49:19.906Z,98.40
2018-09-22T06:51:49.607Z,98.40
2018-09-22T06:54:19.058Z,98.40
2018-09-22T06:56:49.502Z,98.30
2018-09-22T06:59:19.333Z,98.30
2018-09-22T07:01:49.061Z,98.20
2018-09-22T07:04:18.536Z,98.30
2018-09-22T07:06:47.980Z,98.30
2018-09-22T07:09:17.639Z,98.00
2018-09-22T07:11:47.543Z,98.20
2018-09-22T07:14:17.049Z,98.60
2018-09-22T07:16:46.756Z,98.50
2018-09-22T07:19:17.876Z,98.60
2018-09-22T07:21:47.457Z,98.60
2018-09-22T07:24:16.601Z,98.50
2018-09-22T07:26:46.816Z,98.50
2018-09-22T07:29:16.962Z,98.60
2018-09-22T07:31:46.550Z,98.60
2018-09-22T07:34:16.152Z,98.60
2018-09-22T07:36:45.748Z,98.50
2018-09-22T07:39:15.470Z,98.40
2018-09-22T07:41:46.194Z,98.60
2018-09-22T07:44:15.802Z,98.60
2018-09-22T07:46:45.318Z,98.80
2018-09-22T07:49:14.966Z,98.50
2018-09-22T07:51:44.106Z,98.50
2018-09-22T07:54:14.522Z,98.50
2018-09-22T07:56:44.407Z,98.40
2018-09-22T07:59:14.016Z,98.20
2018-09-22T08:01:43.524Z,98.30
2018-09-22T08:04:13.122Z,98.30
2018-09-22T08:06:42.658Z,98.20
2018-09-22T08:09:12.275Z,98.10
2018-09-22T08:11:41.923Z,98.20
2018-09-22T08:14:12.271Z,98.30
2018-09-22T08:16:41.993Z,98.30
2018-09-22T08:19:11.565Z,98.30
2018-09-22T08:21:41.443Z,98.10
2018-09-22T08:24:11.015Z,98.10
2018-09-22T08:26:40.555Z,98.00
2018-09-22T08:29:11.236Z,97.70
2018-09-22T08:31:41.805Z,98.10
2018-09-22T08:34:10.984Z,98.30
2018-09-22T08:36:40.845Z,98.20
2018-09-22T08:39:10.776Z,98.30
2018-09-22T08:41:40.314Z,98.40
2018-09-22T08:44:09.731Z,98.30
2018-09-22T08:46:39.441Z,98.40
2018-09-22T08:49:09.154Z,98.40
2018-09-22T08:51:39.219Z,98.50
2018-09-22T08:54:08.850Z,98.40
2018-09-22T08:56:38.440Z,98.30
2018-09-22T08:59:08.817Z,98.30
2018-09-22T09:01:39.755Z,98.50
2018-09-22T09:04:09.904Z,98.30
2018-09-22T09:06:39.681Z,98.20
2018-09-22T09:09:10.155Z,98.20
2018-09-22T09:11:39.642Z,98.20
2018-09-22T09:14:09.136Z,98.30
2018-09-22T09:16:38.869Z,98.20
2018-09-22T09:19:08.719Z,98.10
2018-09-22T09:21:38.269Z,98.10
2018-09-22T09:24:07.570Z,98.00
2018-09-22T09:26:37.363Z,98.00
2018-09-22T09:29:07.950Z,97.90
2018-09-22T09:31:37.355Z,97.90
2018-09-22T09:34:09.725Z,97.90
2018-09-22T09:36:39.491Z,98.10
2018-09-22T09:39:09.141Z,97.90
2018-09-22T09:41:38.761Z,98.10
2018-09-22T09:44:08.087Z,98.20
2018-09-22T09:46:38.588Z,98.40
2018-09-22T09:49:08.820Z,97.90
2018-09-22T09:51:38.426Z,98.00
2018-09-22T09:54:08.036Z,98.30
2018-09-22T09:56:37.780Z,98.40
2018-09-22T09:59:07.265Z,98.90
2018-09-22T10:01:37.078Z,99.40
2018-09-22T10:04:06.707Z,99.10
2018-09-22T10:06:36.480Z,99.20
2018-09-22T10:09:06.164Z,99.30
2018-09-22T10:11:36.030Z,99.30
2018-09-22T10:14:05.729Z,99.60
2018-09-22T10:16:35.445Z,99.30
2018-09-22T10:19:05.928Z,99.50
2018-09-22T10:21:37.383Z,99.50
2018-09-22T10:24:07.127Z,99.10
2018-09-22T10:26:36.704Z,99.90
2018-09-22T10:29:06.041Z,99.90
2018-09-22T10:31:35.644Z,99.90
2018-09-22T10:34:05.428Z,99.90
2018-09-22T10:36:37.200Z,99.90
2018-09-22T10:39:07.285Z,99.80
2018-09-22T10:41:37.690Z,99.70
2018-09-22T10:44:07.132Z,99.70
2018-09-22T10:46:37.832Z,99.30
2018-09-22T10:49:07.347Z,99.20
2018-09-22T10:51:37.852Z,99.50
2018-09-22T10:54:07.477Z,99.20
2018-09-22T10:56:36.909Z,99.50
2018-09-22T10:59:07.302Z,99.00
2018-09-22T11:01:37.149Z,99.00
2018-09-22T11:04:07.131Z,99.20
2018-09-22T11:06:36.582Z,99.50
2018-09-22T11:09:07.315Z,99.20
2018-09-22T11:11:37.929Z,99.20
2018-09-22T11:14:08.815Z,98.80
2018-09-22T11:16:38.587Z,98.80
2018-09-22T11:19:08.188Z,99.10
2018-09-22T11:21:37.917Z,99.00
2018-09-22T11:24:08.547Z,98.80
2018-09-22T11:26:38.291Z,98.90
2018-09-22T11:29:08.777Z,98.70
2018-09-22T11:31:38.307Z,98.90
2018-09-22T11:34:07.787Z,98.80
2018-09-22T11:36:37.435Z,98.80
2018-09-22T11:39:06.892Z,98.80
2018-09-22T11:41:36.432Z,98.80
2018-09-22T11:44:06.164Z,98.60
2018-09-22T11:46:35.827Z,98.70
2018-09-22T11:49:05.348Z,98.80
2018-09-22T11:51:34.781Z,98.60
2018-09-22T11:54:04.819Z,98.70
2018-09-22T11:56:34.307Z,98.70
2018-09-22T11:59:04.371Z,98.60
2018-09-22T12:01:35.064Z,98.60
2018-09-22T12:04:04.466Z,98.70
2018-09-22T12:06:34.568Z,98.60
2018-09-22T12:09:04.688Z,98.50
2018-09-22T12:11:34.355Z,98.40
2018-09-22T12:14:04.840Z,98.60
2018-09-22T12:16:36.042Z,98.60
2018-09-22T12:19:05.378Z,98.60
2018-09-22T12:21:35.154Z,98.70
2018-09-22T12:24:04.776Z,98.80
2018-09-22T12:26:34.358Z,98.70
2018-09-22T12:29:04.219Z,98.60
2018-09-22T12:31:34.773Z,98.60
2018-09-22T12:34:04.427Z,98.60
2018-09-22T12:36:34.016Z,98.70
2018-09-22T12:39:03.739Z,98.60
2018-09-22T12:41:32.871Z,98.90
2018-09-22T12:44:02.636Z,98.60
2018-09-22T12:46:32.941Z,98.60
2018-09-22T12:49:02.665Z,98.60
2018-09-22T12:51:32.786Z,98.60
2018-09-22T12:54:02.342Z,98.60
2018-09-22T12:56:32.808Z,98.40
2018-09-22T12:59:03.155Z,98.50
2018-09-22T13:01:32.960Z,98.50
2018-09-22T13:04:02.643Z,98.60
2018-09-22T13:06:32.685Z,98.40
2018-09-22T13:09:02.303Z,98.70
2018-09-22T13:11:31.911Z,98.70
2018-09-22T13:14:01.424Z,98.60
2018-09-22T13:16:31.183Z,98.60
2018-09-22T13:19:00.802Z,98.60
2018-09-22T13:21:30.635Z,98.50
2018-09-22T13:24:00.205Z,98.40
2018-09-22T13:26:30.314Z,98.50
2018-09-22T13:28:59.631Z,98.50
2018-09-22T13:31:29.167Z,98.50
2018-09-22T13:33:59.516Z,98.60
2018-09-22T13:36:30.008Z,98.60
2018-09-22T13:39:00.040Z,98.50
2018-09-22T13:41:29.750Z,98.50
2018-09-22T13:44:00.293Z,98.50
2018-09-22T13:46:29.673Z,98.50
2018-09-22T13:49:00.717Z,98.20
2018-09-22T13:51:30.899Z,98.50
2018-09-22T13:54:00.375Z,98.50
2018-09-22T13:56:29.884Z,98.30
2018-09-22T13:59:00.113Z,98.50
2018-09-22T14:01:29.516Z,98.90
2018-09-22T14:04:00.205Z,98.40
2018-09-22T14:06:30.337Z,98.50
2018-09-22T14:09:00.124Z,98.80
2018-09-22T14:11:29.514Z,98.50
2018-09-22T14:13:59.178Z,98.30
2018-09-22T14:16:28.658Z,98.10
2018-09-22T14:18:58.370Z,98.20
2018-09-22T14:21:28.201Z,98.30
2018-09-22T14:23:57.825Z,98.40
2018-09-22T14:26:27.635Z,98.30
2018-09-22T14:28:57.422Z,98.20
2018-09-22T14:31:26.780Z,98.30
2018-09-22T14:33:56.243Z,98.20
2018-09-22T14:36:26.789Z,98.40
2018-09-22T14:38:56.326Z,98.30
2018-09-22T14:41:26.096Z,98.40
2018-09-22T14:43:55.632Z,98.40
2018-09-22T14:46:25.220Z,98.40
2018-09-22T14:48:54.713Z,98.30
2018-09-22T14:51:24.264Z,98.30
2018-09-22T14:53:53.852Z,98.40
2018-09-22T14:56:24.390Z,98.50
2018-09-22T14:58:53.862Z,98.40
2018-09-22T15:01:23.357Z,98.50
2018-09-22T15:03:52.872Z,98.40
2018-09-22T15:06:22.552Z,98.40
2018-09-22T15:08:53.007Z,98.40
2018-09-22T15:11:22.615Z,98.40
2018-09-22T15:13:55.268Z,98.30
2018-09-22T15:16:25.757Z,98.60
2018-09-22T15:18:55.429Z,98.80
2018-09-22T15:21:24.958Z,98.80
2018-09-22T15:23:54.711Z,98.80
2018-09-22T15:26:24.205Z,98.70
2018-09-22T15:28:53.557Z,98.60
2018-09-22T15:31:24.287Z,98.60
2018-09-22T15:33:54.083Z,98.50
2018-09-22T15:36:24.090Z,98.50
2018-09-22T15:38:54.174Z,98.50
2018-09-22T15:41:24.206Z,98.50
2018-09-22T15:43:53.850Z,98.40
2018-09-22T15:46:23.978Z,98.40
2018-09-22T15:48:53.347Z,98.40
2018-09-22T15:51:23.027Z,98.50
2018-09-22T15:53:52.696Z,98.60
2018-09-22T15:56:22.196Z,98.40
2018-09-22T15:58:51.987Z,98.50
2018-09-22T16:01:22.215Z,98.20
2018-09-22T16:03:52.586Z,97.80
2018-09-22T16:06:22.356Z,97.70
2018-09-22T16:08:51.888Z,97.90
2018-09-22T16:11:21.413Z,98.10
2018-09-22T16:13:51.211Z,98.20
2018-09-22T16:16:21.916Z,98.20
2018-09-22T16:18:51.833Z,98.30
2018-09-22T16:21:21.732Z,98.30
2018-09-22T16:23:51.428Z,98.40
2018-09-22T16:26:21.541Z,97.90
2018-09-22T16:28:50.998Z,98.10
2018-09-22T16:31:20.495Z,98.10
2018-09-22T16:33:50.443Z,98.10
2018-09-22T16:36:20.111Z,97.70
2018-09-22T16:38:49.588Z,97.90
2018-09-22T16:41:19.279Z,98.00
2018-09-22T16:43:49.121Z,97.90
2018-09-22T16:46:18.902Z,97.90
2018-09-22T16:48:48.691Z,97.50
2018-09-22T16:51:18.200Z,97.40
2018-09-22T16:53:48.722Z,97.30
2018-09-22T16:56:19.295Z,97.60
2018-09-22T16:58:48.764Z,97.50
2018-09-22T17:01:18.022Z,97.50
2018-09-22T17:03:47.669Z,97.40
2018-09-22T17:06:17.116Z,97.10
2018-09-22T17:08:46.739Z,97.10
2018-09-22T17:11:16.202Z,96.60
2018-09-22T17:13:46.021Z,97.10
2018-09-22T17:16:15.829Z,97.20
2018-09-22T17:18:45.624Z,97.00
2018-09-22T17:21:14.842Z,97.30
2018-09-22T17:23:44.321Z,97.30
2018-09-22T17:26:13.927Z,97.10
2018-09-22T17:28:43.605Z,96.90
2018-09-22T17:31:13.118Z,97.10
2018-09-22T17:33:45.717Z,96.70
2018-09-22T17:36:16.239Z,96.90
2018-09-22T17:38:45.879Z,96.60
2018-09-22T17:41:16.392Z,96.90
2018-09-22T17:43:46.079Z,96.90
2018-09-22T17:46:16.442Z,97.00
2018-09-22T17:48:46.072Z,96.90
2018-09-22T17:51:17.239Z,96.80
2018-09-22T17:53:47.692Z,96.90
2018-09-22T17:56:17.216Z,96.90
2018-09-22T17:58:46.893Z,96.80
2018-09-22T18:01:16.783Z,96.70
2018-09-22T18:03:47.065Z,96.40
2018-09-22T18:06:16.665Z,96.70
2018-09-22T18:08:46.330Z,96.30
2018-09-22T18:11:16.736Z,95.90
2018-09-22T18:13:46.376Z,95.90
2018-09-22T18:16:16.238Z,95.70
2018-09-22T18:18:45.945Z,94.80
2018-09-22T18:21:15.718Z,95.50
2018-09-22T18:23:45.619Z,95.70
2018-09-22T18:26:15.597Z,95.80
2018-09-22T18:28:45.288Z,95.90
2018-09-22T18:31:15.182Z,96.00
2018-09-22T18:33:47.247Z,95.40
2018-09-22T18:36:44.571Z,95.40
2018-09-22T18:39:14.547Z,95.60
2018-09-22T18:41:43.952Z,95.40
2018-09-22T18:44:13.556Z,94.90
2018-09-22T18:46:43.318Z,94.60
2018-09-22T18:49:13.768Z,95.10
2018-09-22T18:51:43.465Z,95.40
2018-09-22T18:54:13.254Z,95.60
2018-09-22T18:56:42.876Z,95.70
2018-09-22T18:59:12.828Z,95.50
2018-09-22T19:01:42.437Z,95.40
2018-09-22T19:04:12.982Z,95.40
2018-09-22T19:06:42.351Z,95.40
2018-09-22T19:09:11.677Z,94.90
2018-09-22T19:11:41.169Z,94.30
2018-09-22T19:14:10.848Z,93.30
2018-09-22T19:16:41.917Z,93.50
2018-09-22T19:19:11.734Z,93.50
2018-09-22T19:21:42.011Z,92.00
2018-09-22T19:24:11.975Z,90.00
2018-09-22T19:26:42.277Z,88.40
2018-09-22T19:29:11.912Z,90.10
2018-09-22T19:31:43.150Z,85.50
2018-09-22T19:34:13.058Z,89.40
2018-09-22T19:36:42.736Z,89.00
2018-09-22T19:39:12.255Z,88.50
2018-09-22T19:41:41.918Z,89.20
2018-09-22T19:44:12.447Z,90.50
2018-09-22T19:46:42.885Z,91.60
2018-09-22T19:49:13.699Z,91.10
2018-09-22T19:51:43.420Z,90.40
2018-09-22T19:54:13.330Z,91.20
2018-09-22T19:56:42.709Z,91.90
2018-09-22T19:59:13.277Z,88.70
2018-09-22T20:01:42.808Z,88.60
2018-09-22T20:04:12.252Z,90.30
2018-09-22T20:06:41.442Z,90.90
2018-09-22T20:09:11.671Z,91.30
2018-09-22T20:11:42.634Z,91.00
2018-09-22T20:14:12.069Z,90.80
2018-09-22T20:16:41.626Z,91.40
2018-09-22T20:19:10.989Z,90.90
2018-09-22T20:21:40.610Z,91.40
2018-09-22T20:24:10.185Z,91.60
2018-09-22T20:26:39.811Z,92.30
2018-09-22T20:29:09.352Z,90.60
2018-09-22T20:31:39.045Z,90.40
2018-09-22T20:34:08.876Z,89.30
2018-09-22T20:36:38.886Z,89.90
2018-09-22T20:39:08.674Z,88.70
2018-09-22T20:41:38.378Z,90.70
2018-09-22T20:44:08.156Z,86.40
2018-09-22T20:46:37.310Z,88.80
2018-09-22T20:49:06.895Z,87.90
2018-09-22T20:51:36.658Z,86.50
2018-09-22T20:54:06.149Z,85.90
2018-09-22T20:56:36.894Z,83.50
2018-09-22T20:59:06.639Z,83.50
2018-09-22T21:01:36.397Z,87.20
2018-09-22T21:04:05.906Z,89.00
2018-09-22T21:06:35.503Z,86.20
2018-09-22T21:09:05.609Z,87.30
2018-09-22T21:11:35.135Z,87.60
2018-09-22T21:14:05.642Z,86.70
2018-09-22T21:16:35.665Z,88.00
2018-09-22T21:19:05.471Z,83.90
2018-09-22T21:21:34.967Z,86.10
2018-09-22T21:24:05.235Z,86.20
2018-09-22T21:26:34.604Z,86.10
2018-09-22T21:29:04.140Z,87.80
2018-09-22T21:31:33.304Z,86.10
2018-09-22T21:34:02.876Z,87.10
2018-09-22T21:36:33.354Z,88.00
2018-09-22T21:39:02.749Z,87.60
2018-09-22T21:41:32.359Z,86.30
2018-09-22T21:44:01.840Z,84.40
2018-09-22T21:46:31.638Z,83.90
2018-09-22T21:49:02.248Z,87.10
2018-09-22T21:51:33.005Z,88.50
2018-09-22T21:54:03.270Z,87.10
2018-09-22T21:56:32.875Z,87.10
2018-09-22T21:59:04.182Z,87.50
2018-09-22T22:01:34.936Z,90.40
2018-09-22T22:04:04.358Z,90.40
2018-09-22T22:06:33.856Z,88.70
2018-09-22T22:09:03.567Z,88.30
2018-09-22T22:11:34.497Z,87.00
2018-09-22T22:14:05.142Z,86.80
2018-09-22T22:16:35.527Z,86.80
2018-09-22T22:19:06.354Z,87.90
2018-09-22T22:21:35.730Z,87.90
2018-09-22T22:24:05.245Z,87.60
2018-09-22T22:26:35.425Z,87.40
2018-09-22T22:29:04.999Z,89.20
2018-09-22T22:31:34.761Z,90.80
2018-09-22T22:34:05.134Z,90.90
2018-09-22T22:36:34.724Z,90.10
2018-09-22T22:39:05.235Z,89.10
2018-09-22T22:41:35.038Z,88.20
2018-09-22T22:44:04.904Z,89.20
2018-09-22T22:46:36.322Z,90.30
2018-09-22T22:49:05.973Z,90.20
2018-09-22T22:51:36.311Z,88.90
2018-09-22T22:54:05.726Z,88.90
2018-09-22T22:56:35.437Z,89.20
2018-09-22T22:59:04.944Z,89.90
2018-09-22T23:01:35.636Z,91.60
2018-09-22T23:04:05.596Z,90.30
2018-09-22T23:06:35.422Z,91.60
2018-09-22T23:09:05.035Z,90.10
2018-09-22T23:11:38.964Z,90.10
2018-09-22T23:14:10.856Z,90.50
2018-09-22T23:16:41.403Z,91.00
2018-09-22T23:19:12.196Z,91.40
2018-09-22T23:21:43.503Z,91.40
2018-09-22T23:24:14.740Z,91.60
2018-09-22T23:26:47.608Z,91.80
2018-09-22T23:29:18.372Z,92.30
2018-09-22T23:31:49.594Z,92.80
2018-09-22T23:34:19.256Z,92.20
2018-09-22T23:36:48.768Z,92.10
2018-09-22T23:39:19.872Z,92.10
2018-09-22T23:41:50.059Z,92.10
2018-09-22T23:44:22.422Z,91.90
2018-09-22T23:46:53.762Z,92.90
2018-09-22T23:49:25.884Z,93.10
2018-09-22T23:51:57.344Z,92.90
2018-09-22T23:54:26.963Z,92.60
2018-09-22T23:56:56.969Z,92.80
2018-09-22T23:59:27.688Z,92.30
